sensor_id;sensor_type;location;lat;lon;timestamp;pressure;altitude;pressure_sealevel;temperature;humidity
39443;BME280;25147;52.142;9.960;2023-04-27T00:00:38;100965.81;;;5.41;74.25
39443;BME280;25147;52.142;9.960;2023-04-27T00:03:05;100980.50;;;5.42;75.44
39443;BME280;25147;52.142;9.960;2023-04-27T00:05:33;100953.72;;;5.43;75.64
39443;BME280;25147;52.142;9.960;2023-04-27T00:08:01;100711.34;;;4.02;75.73
39443;BME280;25147;52.142;9.960;2023-04-27T00:10:28;100857.78;;;4.89;76.23
39443;BME280;25147;52.142;9.960;2023-04-27T00:12:55;100947.66;;;5.45;76.39
39443;BME280;25147;52.142;9.960;2023-04-27T00:15:22;100964.09;;;5.45;76.48
39443;BME280;25147;52.142;9.960;2023-04-27T00:17:49;100638.94;;;3.54;75.37
39443;BME280;25147;52.142;9.960;2023-04-27T00:20:16;100814.03;;;4.52;74.31
39443;BME280;25147;52.142;9.960;2023-04-27T00:22:45;100621.66;;;3.51;73.75
39443;BME280;25147;52.142;9.960;2023-04-27T00:25:13;100899.38;;;4.96;73.25
39443;BME280;25147;52.142;9.960;2023-04-27T00:27:40;100956.31;;;5.43;72.99
39443;BME280;25147;52.142;9.960;2023-04-27T00:30:08;100868.25;;;4.95;73.22
39443;BME280;25147;52.142;9.960;2023-04-27T00:32:35;100957.16;;;5.44;72.83
39443;BME280;25147;52.142;9.960;2023-04-27T00:35:02;100953.72;;;5.45;72.81
39443;BME280;25147;52.142;9.960;2023-04-27T00:37:29;100949.41;;;5.46;72.86
39443;BME280;25147;52.142;9.960;2023-04-27T00:39:55;100843.00;;;4.83;72.92
39443;BME280;25147;52.142;9.960;2023-04-27T00:42:24;100729.69;;;4.16;72.73
39443;BME280;25147;52.142;9.960;2023-04-27T00:44:50;100623.22;;;3.41;72.64
39443;BME280;25147;52.142;9.960;2023-04-27T00:47:17;100952.81;;;5.43;73.17
39443;BME280;25147;52.142;9.960;2023-04-27T00:49:44;100712.09;;;3.94;73.07
39443;BME280;25147;52.142;9.960;2023-04-27T00:52:11;100938.75;;;5.26;73.38
39443;BME280;25147;52.142;9.960;2023-04-27T00:54:38;100863.81;;;4.88;73.61
39443;BME280;25147;52.142;9.960;2023-04-27T00:57:05;100863.72;;;4.81;73.91
39443;BME280;25147;52.142;9.960;2023-04-27T00:59:34;100800.06;;;4.42;74.21
39443;BME280;25147;52.142;9.960;2023-04-27T01:02:01;100703.06;;;3.70;74.37
39443;BME280;25147;52.142;9.960;2023-04-27T01:04:28;100806.09;;;4.40;74.73
39443;BME280;25147;52.142;9.960;2023-04-27T01:06:56;100910.00;;;5.12;74.84
39443;BME280;25147;52.142;9.960;2023-04-27T01:09:23;100963.94;;;5.31;75.25
39443;BME280;25147;52.142;9.960;2023-04-27T01:11:50;100913.34;;;5.05;75.21
39443;BME280;25147;52.142;9.960;2023-04-27T01:14:17;100960.44;;;5.31;75.43
39443;BME280;25147;52.142;9.960;2023-04-27T01:16:45;100628.31;;;3.34;75.46
39443;BME280;25147;52.142;9.960;2023-04-27T01:19:12;100981.22;;;5.29;75.79
39443;BME280;25147;52.142;9.960;2023-04-27T01:21:39;100969.94;;;5.29;75.93
39443;BME280;25147;52.142;9.960;2023-04-27T01:24:08;100963.88;;;5.28;75.98
39443;BME280;25147;52.142;9.960;2023-04-27T01:26:35;100888.66;;;4.70;75.91
39443;BME280;25147;52.142;9.960;2023-04-27T01:29:02;100937.47;;;4.97;76.21
39443;BME280;25147;52.142;9.960;2023-04-27T01:31:29;100981.16;;;5.26;76.34
39443;BME280;25147;52.142;9.960;2023-04-27T01:33:56;100799.72;;;4.21;76.48
39443;BME280;25147;52.142;9.960;2023-04-27T01:36:23;100978.50;;;5.23;76.85
39443;BME280;25147;52.142;9.960;2023-04-27T01:38:50;100756.03;;;3.88;76.57
39443;BME280;25147;52.142;9.960;2023-04-27T01:41:18;100791.03;;;4.16;77.03
39443;BME280;25147;52.142;9.960;2023-04-27T01:43:45;100829.03;;;4.15;77.01
39443;BME280;25147;52.142;9.960;2023-04-27T01:46:12;100986.25;;;5.20;77.46
39443;BME280;25147;52.142;9.960;2023-04-27T01:48:40;100971.41;;;5.10;77.50
39443;BME280;25147;52.142;9.960;2023-04-27T01:51:07;100899.72;;;4.61;77.60
39443;BME280;25147;52.142;9.960;2023-04-27T01:53:34;100870.09;;;4.44;77.86
39443;BME280;25147;52.142;9.960;2023-04-27T01:56:01;100694.56;;;3.27;77.97
39443;BME280;25147;52.142;9.960;2023-04-27T01:58:29;100793.16;;;3.88;78.17
39443;BME280;25147;52.142;9.960;2023-04-27T02:00:56;101019.03;;;5.15;78.30
39443;BME280;25147;52.142;9.960;2023-04-27T02:03:23;101004.31;;;5.14;78.44
39443;BME280;25147;52.142;9.960;2023-04-27T02:05:50;101005.16;;;5.13;78.82
39443;BME280;25147;52.142;9.960;2023-04-27T02:08:17;100691.06;;;3.22;78.70
39443;BME280;25147;52.142;9.960;2023-04-27T02:10:44;101012.91;;;5.10;79.01
39443;BME280;25147;52.142;9.960;2023-04-27T02:13:11;100832.25;;;4.02;78.95
39443;BME280;25147;52.142;9.960;2023-04-27T02:15:39;100862.63;;;4.12;79.04
39443;BME280;25147;52.142;9.960;2023-04-27T02:18:06;101044.78;;;5.02;79.06
39443;BME280;25147;52.142;9.960;2023-04-27T02:20:33;101019.53;;;4.92;79.34
39443;BME280;25147;52.142;9.960;2023-04-27T02:23:00;101030.91;;;4.99;79.08
39443;BME280;25147;52.142;9.960;2023-04-27T02:25:27;101068.94;;;4.97;78.93
39443;BME280;25147;52.142;9.960;2023-04-27T02:27:54;101033.44;;;4.96;79.09
39443;BME280;25147;52.142;9.960;2023-04-27T02:30:20;101057.50;;;4.86;79.09
39443;BME280;25147;52.142;9.960;2023-04-27T02:32:49;101036.00;;;4.93;79.06
39443;BME280;25147;52.142;9.960;2023-04-27T02:35:15;101038.50;;;4.88;79.24
39443;BME280;25147;52.142;9.960;2023-04-27T02:37:42;100974.69;;;4.46;79.23
39443;BME280;25147;52.142;9.960;2023-04-27T02:40:10;101044.47;;;4.82;79.22
39443;BME280;25147;52.142;9.960;2023-04-27T02:42:37;100902.06;;;3.96;79.33
39443;BME280;25147;52.142;9.960;2023-04-27T02:45:05;101044.34;;;4.75;79.52
39443;BME280;25147;52.142;9.960;2023-04-27T02:47:32;100774.38;;;3.07;79.08
39443;BME280;25147;52.142;9.960;2023-04-27T02:50:00;101049.41;;;4.69;79.77
39443;BME280;25147;52.142;9.960;2023-04-27T02:52:28;100949.78;;;4.09;79.92
39443;BME280;25147;52.142;9.960;2023-04-27T02:54:55;101040.66;;;4.62;79.86
39443;BME280;25147;52.142;9.960;2023-04-27T02:57:22;101032.81;;;4.59;79.91
39443;BME280;25147;52.142;9.960;2023-04-27T02:59:49;100962.03;;;4.16;79.85
39443;BME280;25147;52.142;9.960;2023-04-27T03:02:16;101004.78;;;4.39;80.08
39443;BME280;25147;52.142;9.960;2023-04-27T03:04:43;101037.94;;;4.56;80.48
39443;BME280;25147;52.142;9.960;2023-04-27T03:07:11;100936.63;;;3.96;80.60
39443;BME280;25147;52.142;9.960;2023-04-27T03:09:38;101032.66;;;4.51;80.79
39443;BME280;25147;52.142;9.960;2023-04-27T03:12:05;100954.72;;;3.93;80.82
39443;BME280;25147;52.142;9.960;2023-04-27T03:14:31;101041.19;;;4.44;80.85
39443;BME280;25147;52.142;9.960;2023-04-27T03:16:59;100884.31;;;3.26;81.12
39443;BME280;25147;52.142;9.960;2023-04-27T03:19:26;100963.25;;;3.91;81.10
39443;BME280;25147;52.142;9.960;2023-04-27T03:21:53;100881.13;;;3.39;81.21
39443;BME280;25147;52.142;9.960;2023-04-27T03:24:21;101054.78;;;4.32;81.44
39443;BME280;25147;52.142;9.960;2023-04-27T03:26:50;100565.91;;;1.40;81.33
39443;BME280;25147;52.142;9.960;2023-04-27T03:29:17;100686.44;;;2.20;81.52
39443;BME280;25147;52.142;9.960;2023-04-27T03:31:44;100862.19;;;3.01;81.60
39443;BME280;25147;52.142;9.960;2023-04-27T03:34:11;100955.09;;;3.69;81.63
39443;BME280;25147;52.142;9.960;2023-04-27T03:36:37;101044.13;;;4.18;81.97
39443;BME280;25147;52.142;9.960;2023-04-27T03:39:05;100810.59;;;2.65;81.89
39443;BME280;25147;52.142;9.960;2023-04-27T03:41:33;100870.19;;;3.10;82.25
39443;BME280;25147;52.142;9.960;2023-04-27T03:44:00;101050.94;;;4.12;82.34
39443;BME280;25147;52.142;9.960;2023-04-27T03:46:27;101055.19;;;4.10;82.52
39443;BME280;25147;52.142;9.960;2023-04-27T03:48:54;101068.97;;;4.09;82.59
39443;BME280;25147;52.142;9.960;2023-04-27T03:51:21;100633.75;;;1.38;82.24
39443;BME280;25147;52.142;9.960;2023-04-27T03:53:48;100945.91;;;3.42;82.49
39443;BME280;25147;52.142;9.960;2023-04-27T03:56:15;100694.16;;;1.83;82.41
39443;BME280;25147;52.142;9.960;2023-04-27T03:58:43;100770.81;;;2.20;82.37
39443;BME280;25147;52.142;9.960;2023-04-27T04:01:11;100713.16;;;1.85;82.15
39443;BME280;25147;52.142;9.960;2023-04-27T04:03:39;101060.22;;;4.02;82.50
39443;BME280;25147;52.142;9.960;2023-04-27T04:06:06;100533.81;;;0.93;82.27
39443;BME280;25147;52.142;9.960;2023-04-27T04:08:33;101054.00;;;3.94;82.73
39443;BME280;25147;52.142;9.960;2023-04-27T04:11:00;101084.34;;;3.99;82.84
39443;BME280;25147;52.142;9.960;2023-04-27T04:13:27;100750.16;;;2.21;83.56
39443;BME280;25147;52.142;9.960;2023-04-27T04:16:01;100685.47;;;1.77;83.43
39443;BME280;25147;52.142;9.960;2023-04-27T04:18:28;100806.78;;;2.49;83.48
39443;BME280;25147;52.142;9.960;2023-04-27T04:20:54;100757.13;;;2.26;83.69
39443;BME280;25147;52.142;9.960;2023-04-27T04:23:21;100663.66;;;1.66;83.64
39443;BME280;25147;52.142;9.960;2023-04-27T04:25:48;101007.44;;;3.56;83.88
39443;BME280;25147;52.142;9.960;2023-04-27T04:28:15;101103.25;;;3.95;84.67
39443;BME280;25147;52.142;9.960;2023-04-27T04:30:42;101002.19;;;3.53;84.56
39443;BME280;25147;52.142;9.960;2023-04-27T04:33:10;101098.84;;;3.91;84.55
39443;BME280;25147;52.142;9.960;2023-04-27T04:35:37;100887.59;;;2.79;84.23
39443;BME280;25147;52.142;9.960;2023-04-27T04:38:04;101123.72;;;3.85;84.76
39443;BME280;25147;52.142;9.960;2023-04-27T04:40:31;100666.91;;;1.23;84.35
39443;BME280;25147;52.142;9.960;2023-04-27T04:42:58;100964.88;;;3.05;84.64
39443;BME280;25147;52.142;9.960;2023-04-27T04:45:25;100761.47;;;1.90;84.52
39443;BME280;25147;52.142;9.960;2023-04-27T04:47:53;101114.03;;;3.76;84.52
39443;BME280;25147;52.142;9.960;2023-04-27T04:50:21;100909.78;;;2.70;84.20
39443;BME280;25147;52.142;9.960;2023-04-27T04:52:48;100922.94;;;2.80;84.85
39443;BME280;25147;52.142;9.960;2023-04-27T04:55:15;101041.94;;;3.55;85.44
39443;BME280;25147;52.142;9.960;2023-04-27T04:57:42;101089.06;;;3.78;85.97
39443;BME280;25147;52.142;9.960;2023-04-27T05:00:10;100907.19;;;2.70;86.20
39443;BME280;25147;52.142;9.960;2023-04-27T05:02:39;100994.44;;;3.15;86.31
39443;BME280;25147;52.142;9.960;2023-04-27T05:05:07;101087.22;;;3.74;86.86
39443;BME280;25147;52.142;9.960;2023-04-27T05:07:35;100828.97;;;2.04;86.45
39443;BME280;25147;52.142;9.960;2023-04-27T05:10:02;101102.28;;;3.90;86.59
39443;BME280;25147;52.142;9.960;2023-04-27T05:12:29;100957.97;;;3.04;86.44
39443;BME280;25147;52.142;9.960;2023-04-27T05:14:56;101081.50;;;3.87;87.15
39443;BME280;25147;52.142;9.960;2023-04-27T05:17:23;101114.56;;;3.99;87.18
39443;BME280;25147;52.142;9.960;2023-04-27T05:19:53;101117.22;;;4.02;87.43
39443;BME280;25147;52.142;9.960;2023-04-27T05:22:19;101098.72;;;3.87;86.68
39443;BME280;25147;52.142;9.960;2023-04-27T05:24:48;100935.53;;;3.01;86.14
39443;BME280;25147;52.142;9.960;2023-04-27T05:27:16;101126.88;;;4.09;85.81
39443;BME280;25147;52.142;9.960;2023-04-27T05:29:43;101109.66;;;4.11;84.92
39443;BME280;25147;52.142;9.960;2023-04-27T05:32:10;101121.84;;;4.15;84.70
39443;BME280;25147;52.142;9.960;2023-04-27T05:34:37;100911.97;;;2.89;84.60
39443;BME280;25147;52.142;9.960;2023-04-27T05:37:04;100964.72;;;3.35;83.89
39443;BME280;25147;52.142;9.960;2023-04-27T05:39:31;100913.56;;;2.84;83.70
39443;BME280;25147;52.142;9.960;2023-04-27T05:41:59;100833.28;;;2.41;83.02
39443;BME280;25147;52.142;9.960;2023-04-27T05:44:27;100735.69;;;1.92;83.07
39443;BME280;25147;52.142;9.960;2023-04-27T05:46:54;100838.06;;;2.61;83.30
39443;BME280;25147;52.142;9.960;2023-04-27T05:49:21;101149.81;;;4.33;82.99
39443;BME280;25147;52.142;9.960;2023-04-27T05:51:48;100959.66;;;3.41;82.43
39443;BME280;25147;52.142;9.960;2023-04-27T05:54:16;101124.97;;;4.43;82.83
39443;BME280;25147;52.142;9.960;2023-04-27T05:56:43;101024.41;;;3.82;82.52
39443;BME280;25147;52.142;9.960;2023-04-27T05:59:12;101126.88;;;4.52;82.56
39443;BME280;25147;52.142;9.960;2023-04-27T06:01:38;100944.91;;;3.36;81.25
39443;BME280;25147;52.142;9.960;2023-04-27T06:04:05;101127.00;;;4.56;80.75
39443;BME280;25147;52.142;9.960;2023-04-27T06:06:33;101131.34;;;4.59;79.99
39443;BME280;25147;52.142;9.960;2023-04-27T06:08:59;101148.69;;;4.61;79.85
39443;BME280;25147;52.142;9.960;2023-04-27T06:11:26;100976.78;;;3.76;79.87
39443;BME280;25147;52.142;9.960;2023-04-27T06:13:53;101126.13;;;4.57;78.68
39443;BME280;25147;52.142;9.960;2023-04-27T06:16:22;100953.97;;;3.56;78.10
39443;BME280;25147;52.142;9.960;2023-04-27T06:18:49;101013.47;;;3.96;77.81
39443;BME280;25147;52.142;9.960;2023-04-27T06:21:16;100968.13;;;3.74;77.34
39443;BME280;25147;52.142;9.960;2023-04-27T06:23:43;100956.81;;;3.69;77.21
39443;BME280;25147;52.142;9.960;2023-04-27T06:26:16;101054.72;;;4.29;77.01
39443;BME280;25147;52.142;9.960;2023-04-27T06:28:43;101160.44;;;4.87;76.49
39443;BME280;25147;52.142;9.960;2023-04-27T06:31:10;101168.22;;;4.88;75.87
39443;BME280;25147;52.142;9.960;2023-04-27T06:33:41;101141.47;;;4.91;75.94
39443;BME280;25147;52.142;9.960;2023-04-27T06:36:08;101036.41;;;4.20;76.37
39443;BME280;25147;52.142;9.960;2023-04-27T06:38:35;101156.25;;;4.96;76.55
39443;BME280;25147;52.142;9.960;2023-04-27T06:41:03;101142.50;;;5.00;76.75
39443;BME280;25147;52.142;9.960;2023-04-27T06:43:30;100970.31;;;3.98;76.61
39443;BME280;25147;52.142;9.960;2023-04-27T06:45:57;101158.22;;;5.08;76.16
39443;BME280;25147;52.142;9.960;2023-04-27T06:48:24;100874.84;;;3.27;74.33
39443;BME280;25147;52.142;9.960;2023-04-27T06:50:52;101043.66;;;4.38;74.22
39443;BME280;25147;52.142;9.960;2023-04-27T06:53:19;101015.72;;;4.23;74.33
39443;BME280;25147;52.142;9.960;2023-04-27T06:55:46;101186.97;;;5.20;73.81
39443;BME280;25147;52.142;9.960;2023-04-27T06:58:13;100794.34;;;3.13;73.66
39443;BME280;25147;52.142;9.960;2023-04-27T07:00:40;100931.44;;;3.95;73.68
39443;BME280;25147;52.142;9.960;2023-04-27T07:03:06;101162.94;;;5.29;73.86
39443;BME280;25147;52.142;9.960;2023-04-27T07:05:33;101062.53;;;4.78;73.42
39443;BME280;25147;52.142;9.960;2023-04-27T07:08:03;101149.84;;;5.25;73.52
39443;BME280;25147;52.142;9.960;2023-04-27T07:10:30;100860.09;;;3.68;72.82
39443;BME280;25147;52.142;9.960;2023-04-27T07:12:58;100764.28;;;3.18;72.87
39443;BME280;25147;52.142;9.960;2023-04-27T07:15:25;100617.44;;;2.15;71.69
39443;BME280;25147;52.142;9.960;2023-04-27T07:17:52;100878.34;;;3.74;71.59
39443;BME280;25147;52.142;9.960;2023-04-27T07:20:19;100654.44;;;2.55;71.67
39443;BME280;25147;52.142;9.960;2023-04-27T07:22:46;100992.03;;;4.50;71.41
39443;BME280;25147;52.142;9.960;2023-04-27T07:25:15;101198.16;;;5.65;70.85
39443;BME280;25147;52.142;9.960;2023-04-27T07:27:42;101169.66;;;5.71;69.71
39443;BME280;25147;52.142;9.960;2023-04-27T07:30:10;101079.88;;;5.32;69.77
39443;BME280;25147;52.142;9.960;2023-04-27T07:32:39;101156.03;;;5.85;69.27
39443;BME280;25147;52.142;9.960;2023-04-27T07:35:06;101068.75;;;5.41;68.29
39443;BME280;25147;52.142;9.960;2023-04-27T07:37:34;101164.72;;;5.88;68.91
39443;BME280;25147;52.142;9.960;2023-04-27T07:40:01;101157.00;;;5.93;69.24
39443;BME280;25147;52.142;9.960;2023-04-27T07:42:31;101122.91;;;5.71;69.21
39443;BME280;25147;52.142;9.960;2023-04-27T07:44:58;101163.28;;;6.06;68.75
39443;BME280;25147;52.142;9.960;2023-04-27T07:47:25;101072.34;;;5.48;68.21
39443;BME280;25147;52.142;9.960;2023-04-27T07:49:53;101173.91;;;6.22;66.55
39443;BME280;25147;52.142;9.960;2023-04-27T07:52:20;101160.91;;;6.22;66.21
39443;BME280;25147;52.142;9.960;2023-04-27T07:54:48;101059.47;;;5.55;65.38
39443;BME280;25147;52.142;9.960;2023-04-27T07:57:15;101013.16;;;5.27;64.23
39443;BME280;25147;52.142;9.960;2023-04-27T07:59:43;100882.22;;;4.47;63.92
39443;BME280;25147;52.142;9.960;2023-04-27T08:02:11;101173.03;;;6.19;62.81
39443;BME280;25147;52.142;9.960;2023-04-27T08:04:38;101185.13;;;6.17;63.32
39443;BME280;25147;52.142;9.960;2023-04-27T08:07:05;100921.03;;;4.43;63.97
39443;BME280;25147;52.142;9.960;2023-04-27T08:09:32;101002.78;;;5.25;64.15
39443;BME280;25147;52.142;9.960;2023-04-27T08:11:59;101172.28;;;6.31;64.48
39443;BME280;25147;52.142;9.960;2023-04-27T08:14:27;101096.50;;;6.01;64.94
39443;BME280;25147;52.142;9.960;2023-04-27T08:16:55;101013.75;;;5.67;65.04
39443;BME280;25147;52.142;9.960;2023-04-27T08:19:22;100998.25;;;5.74;64.26
39443;BME280;25147;52.142;9.960;2023-04-27T08:21:49;101180.69;;;6.77;63.47
39443;BME280;25147;52.142;9.960;2023-04-27T08:24:16;101125.75;;;6.52;62.29
39443;BME280;25147;52.142;9.960;2023-04-27T08:26:43;101101.09;;;6.19;61.48
39443;BME280;25147;52.142;9.960;2023-04-27T08:29:10;101114.06;;;6.18;61.28
39443;BME280;25147;52.142;9.960;2023-04-27T08:31:37;101109.72;;;6.18;61.71
39443;BME280;25147;52.142;9.960;2023-04-27T08:34:05;101017.06;;;5.56;62.13
39443;BME280;25147;52.142;9.960;2023-04-27T08:36:32;101003.06;;;5.47;62.63
39443;BME280;25147;52.142;9.960;2023-04-27T08:38:59;101154.41;;;6.54;63.22
39443;BME280;25147;52.142;9.960;2023-04-27T08:41:27;100855.94;;;4.81;63.13
39443;BME280;25147;52.142;9.960;2023-04-27T08:43:54;100982.66;;;5.73;62.74
39443;BME280;25147;52.142;9.960;2023-04-27T08:46:21;101063.09;;;6.32;59.58
39443;BME280;25147;52.142;9.960;2023-04-27T08:48:50;100832.13;;;5.10;59.46
39443;BME280;25147;52.142;9.960;2023-04-27T08:51:19;101074.78;;;6.71;57.83
39443;BME280;25147;52.142;9.960;2023-04-27T08:53:48;100754.91;;;4.89;58.10
39443;BME280;25147;52.142;9.960;2023-04-27T08:56:16;100769.56;;;4.87;57.82
39443;BME280;25147;52.142;9.960;2023-04-27T08:58:44;101157.81;;;7.29;57.75
39443;BME280;25147;52.142;9.960;2023-04-27T09:01:11;101143.84;;;7.24;57.75
39443;BME280;25147;52.142;9.960;2023-04-27T09:03:38;101136.88;;;7.20;57.65
39443;BME280;25147;52.142;9.960;2023-04-27T09:06:06;100834.31;;;5.48;57.25
39443;BME280;25147;52.142;9.960;2023-04-27T09:08:45;100850.75;;;5.49;55.71
39443;BME280;25147;52.142;9.960;2023-04-27T09:11:12;101156.00;;;7.23;56.16
39443;BME280;25147;52.142;9.960;2023-04-27T09:13:41;100853.44;;;5.55;54.38
39443;BME280;25147;52.142;9.960;2023-04-27T09:16:11;101148.22;;;7.28;53.60
39443;BME280;25147;52.142;9.960;2023-04-27T09:18:41;100688.06;;;4.68;54.05
39443;BME280;25147;52.142;9.960;2023-04-27T09:21:08;100901.59;;;6.01;53.57
39443;BME280;25147;52.142;9.960;2023-04-27T09:23:38;100947.00;;;6.39;53.67
39443;BME280;25147;52.142;9.960;2023-04-27T09:26:07;101048.31;;;7.18;53.17
39443;BME280;25147;52.142;9.960;2023-04-27T09:28:38;101133.91;;;7.86;53.31
39443;BME280;25147;52.142;9.960;2023-04-27T09:31:06;101083.38;;;7.62;52.64
39443;BME280;25147;52.142;9.960;2023-04-27T09:33:35;101138.34;;;8.00;52.25
39443;BME280;25147;52.142;9.960;2023-04-27T09:36:04;100683.44;;;5.20;51.81
39443;BME280;25147;52.142;9.960;2023-04-27T09:38:32;100984.06;;;7.16;50.88
39443;BME280;25147;52.142;9.960;2023-04-27T09:40:59;101131.44;;;8.04;51.39
39443;BME280;25147;52.142;9.960;2023-04-27T09:43:28;100853.28;;;6.23;52.25
39443;BME280;25147;52.142;9.960;2023-04-27T09:45:56;100983.88;;;6.88;51.97
39443;BME280;25147;52.142;9.960;2023-04-27T09:48:24;100984.78;;;6.95;52.05
39443;BME280;25147;52.142;9.960;2023-04-27T09:50:52;101125.16;;;7.74;52.50
39443;BME280;25147;52.142;9.960;2023-04-27T09:53:21;101023.03;;;7.03;52.20
39443;BME280;25147;52.142;9.960;2023-04-27T09:55:56;100808.84;;;5.97;51.91
39443;BME280;25147;52.142;9.960;2023-04-27T09:58:42;100659.13;;;5.12;52.00
39443;BME280;25147;52.142;9.960;2023-04-27T10:01:20;101144.47;;;8.04;51.32
39443;BME280;25147;52.142;9.960;2023-04-27T10:04:01;101122.81;;;8.22;50.52
39443;BME280;25147;52.142;9.960;2023-04-27T10:06:57;101122.94;;;8.48;50.00
39443;BME280;25147;52.142;9.960;2023-04-27T10:09:25;100844.25;;;7.01;48.51
39443;BME280;25147;52.142;9.960;2023-04-27T10:11:55;101024.56;;;8.16;48.39
39443;BME280;25147;52.142;9.960;2023-04-27T10:14:24;101064.69;;;8.49;48.81
39443;BME280;25147;52.142;9.960;2023-04-27T10:16:52;101143.97;;;8.83;49.66
39443;BME280;25147;52.142;9.960;2023-04-27T10:19:20;100577.28;;;5.50;49.41
39443;BME280;25147;52.142;9.960;2023-04-27T10:21:52;101011.47;;;7.98;48.25
39443;BME280;25147;52.142;9.960;2023-04-27T10:24:33;100870.31;;;7.10;48.66
39443;BME280;25147;52.142;9.960;2023-04-27T10:27:02;101109.84;;;8.39;47.52
39443;BME280;25147;52.142;9.960;2023-04-27T10:29:37;101126.47;;;8.55;48.16
39443;BME280;25147;52.142;9.960;2023-04-27T10:32:05;101138.66;;;8.60;48.13
39443;BME280;25147;52.142;9.960;2023-04-27T10:34:34;100993.13;;;7.86;47.82
39443;BME280;25147;52.142;9.960;2023-04-27T10:37:06;100813.84;;;6.91;46.71
39443;BME280;25147;52.142;9.960;2023-04-27T10:39:36;100692.03;;;6.16;46.31
39443;BME280;25147;52.142;9.960;2023-04-27T10:42:04;101117.84;;;8.82;45.83
39443;BME280;25147;52.142;9.960;2023-04-27T10:44:32;100923.59;;;7.74;45.90
39443;BME280;25147;52.142;9.960;2023-04-27T10:47:11;101076.03;;;8.74;45.49
39443;BME280;25147;52.142;9.960;2023-04-27T10:49:39;100941.88;;;7.84;44.57
39443;BME280;25147;52.142;9.960;2023-04-27T10:52:06;100919.25;;;7.79;44.23
39443;BME280;25147;52.142;9.960;2023-04-27T10:54:34;100994.97;;;8.08;43.75
39443;BME280;25147;52.142;9.960;2023-04-27T10:57:03;101150.91;;;8.80;43.49
39443;BME280;25147;52.142;9.960;2023-04-27T10:59:30;101120.44;;;8.77;44.24
39443;BME280;25147;52.142;9.960;2023-04-27T11:01:57;101116.09;;;8.79;44.31
39443;BME280;25147;52.142;9.960;2023-04-27T11:04:38;100839.13;;;7.18;45.11
39443;BME280;25147;52.142;9.960;2023-04-27T11:07:06;100952.28;;;7.83;44.99
39443;BME280;25147;52.142;9.960;2023-04-27T11:09:34;100939.31;;;7.97;45.03
39443;BME280;25147;52.142;9.960;2023-04-27T11:12:05;100907.13;;;7.84;44.55
39443;BME280;25147;52.142;9.960;2023-04-27T11:14:34;101086.50;;;8.91;44.61
39443;BME280;25147;52.142;9.960;2023-04-27T11:17:01;101099.59;;;8.96;45.03
39443;BME280;25147;52.142;9.960;2023-04-27T11:19:29;101092.63;;;8.90;42.02
39443;BME280;25147;52.142;9.960;2023-04-27T11:22:05;100951.53;;;8.21;42.52
39443;BME280;25147;52.142;9.960;2023-04-27T11:24:32;101022.94;;;8.64;41.83
39443;BME280;25147;52.142;9.960;2023-04-27T11:26:59;100857.56;;;7.81;42.48
39443;BME280;25147;52.142;9.960;2023-04-27T11:29:36;101096.09;;;9.03;42.44
39443;BME280;25147;52.142;9.960;2023-04-27T11:32:04;101095.25;;;9.26;42.47
39443;BME280;25147;52.142;9.960;2023-04-27T11:34:31;101110.94;;;9.27;42.22
39443;BME280;25147;52.142;9.960;2023-04-27T11:37:05;100943.72;;;8.38;41.96
39443;BME280;25147;52.142;9.960;2023-04-27T11:39:34;100935.03;;;8.25;41.70
39443;BME280;25147;52.142;9.960;2023-04-27T11:42:15;101022.97;;;8.80;40.82
39443;BME280;25147;52.142;9.960;2023-04-27T11:44:53;101110.06;;;9.28;41.40
39443;BME280;25147;52.142;9.960;2023-04-27T11:47:21;100979.44;;;8.67;41.69
39443;BME280;25147;52.142;9.960;2023-04-27T11:49:48;101083.06;;;9.43;42.02
39443;BME280;25147;52.142;9.960;2023-04-27T11:52:17;100630.81;;;6.90;42.07
39443;BME280;25147;52.142;9.960;2023-04-27T11:54:46;101108.28;;;9.64;42.75
39443;BME280;25147;52.142;9.960;2023-04-27T11:57:14;101083.00;;;9.71;41.94
39443;BME280;25147;52.142;9.960;2023-04-27T11:59:41;100837.63;;;7.98;41.69
39443;BME280;25147;52.142;9.960;2023-04-27T12:02:10;100657.66;;;6.88;42.37
39443;BME280;25147;52.142;9.960;2023-04-27T12:04:41;101119.63;;;9.46;42.50
39443;BME280;25147;52.142;9.960;2023-04-27T12:07:09;100784.59;;;7.87;42.76
39443;BME280;25147;52.142;9.960;2023-04-27T12:09:39;101030.81;;;9.31;41.90
39443;BME280;25147;52.142;9.960;2023-04-27T12:12:06;100821.97;;;8.01;41.46
39443;BME280;25147;52.142;9.960;2023-04-27T12:14:34;100770.69;;;7.67;41.86
39443;BME280;25147;52.142;9.960;2023-04-27T12:17:01;100930.75;;;8.67;41.68
39443;BME280;25147;52.142;9.960;2023-04-27T12:19:28;100902.03;;;8.55;41.62
39443;BME280;25147;52.142;9.960;2023-04-27T12:21:56;101011.66;;;9.16;41.93
39443;BME280;25147;52.142;9.960;2023-04-27T12:24:23;101080.44;;;9.55;41.01
39443;BME280;25147;52.142;9.960;2023-04-27T12:26:55;101086.53;;;9.51;40.66
39443;BME280;25147;52.142;9.960;2023-04-27T12:29:22;101075.22;;;9.49;40.83
39443;BME280;25147;52.142;9.960;2023-04-27T12:31:50;100706.41;;;7.47;40.84
39443;BME280;25147;52.142;9.960;2023-04-27T12:34:17;100731.56;;;7.53;41.20
39443;BME280;25147;52.142;9.960;2023-04-27T12:36:44;101001.19;;;9.33;40.96
39443;BME280;25147;52.142;9.960;2023-04-27T12:39:13;101029.00;;;9.60;41.00
39443;BME280;25147;52.142;9.960;2023-04-27T12:41:40;100954.19;;;9.21;40.51
39443;BME280;25147;52.142;9.960;2023-04-27T12:44:16;100873.31;;;8.70;40.46
39443;BME280;25147;52.142;9.960;2023-04-27T12:46:44;101056.81;;;9.84;40.48
39443;BME280;25147;52.142;9.960;2023-04-27T12:49:16;100801.13;;;8.29;39.68
39443;BME280;25147;52.142;9.960;2023-04-27T12:51:44;101080.41;;;9.74;40.06
39443;BME280;25147;52.142;9.960;2023-04-27T12:54:20;101070.81;;;9.74;39.95
39443;BME280;25147;52.142;9.960;2023-04-27T12:56:47;100996.84;;;9.38;40.27
39443;BME280;25147;52.142;9.960;2023-04-27T12:59:17;101074.31;;;9.66;40.80
39443;BME280;25147;52.142;9.960;2023-04-27T13:01:46;100713.34;;;7.67;40.21
39443;BME280;25147;52.142;9.960;2023-04-27T13:04:17;100903.75;;;8.88;40.58